sensor_id;sensor_type;location;lat;lon;timestamp;pressure;altitude;pressure_sealevel;temperature;humidity
2188;BME280;1100;52.014;8.540;2023-05-24T00:00:40;100835.50;;;6.07;72.86
2188;BME280;1100;52.014;8.540;2023-05-24T00:03:06;100828.44;;;6.06;72.99
2188;BME280;1100;52.014;8.540;2023-05-24T00:05:32;100830.78;;;6.04;72.88
2188;BME280;1100;52.014;8.540;2023-05-24T00:07:58;100833.13;;;6.02;73.06
2188;BME280;1100;52.014;8.540;2023-05-24T00:10:24;100828.38;;;5.99;73.06
2188;BME280;1100;52.014;8.540;2023-05-24T00:12:50;100821.66;;;5.96;73.20
2188;BME280;1100;52.014;8.540;2023-05-24T00:15:15;100814.94;;;5.94;73.11
2188;BME280;1100;52.014;8.540;2023-05-24T00:17:41;100833.09;;;5.98;73.78
2188;BME280;1100;52.014;8.540;2023-05-24T00:20:11;100822.44;;;5.97;73.41
2188;BME280;1100;52.014;8.540;2023-05-24T00:22:37;100830.34;;;5.98;73.72
2188;BME280;1100;52.014;8.540;2023-05-24T00:25:03;100828.34;;;5.95;73.76
2188;BME280;1100;52.014;8.540;2023-05-24T00:27:29;100830.34;;;5.98;73.77
2188;BME280;1100;52.014;8.540;2023-05-24T00:29:55;100821.66;;;6.00;73.68
2188;BME280;1100;52.014;8.540;2023-05-24T00:32:20;100817.34;;;5.99;73.79
2188;BME280;1100;52.014;8.540;2023-05-24T00:34:45;100813.78;;;5.98;74.08
2188;BME280;1100;52.014;8.540;2023-05-24T00:37:11;100817.72;;;6.01;74.57
2188;BME280;1100;52.014;8.540;2023-05-24T00:39:37;100809.44;;;6.01;74.27
2188;BME280;1100;52.014;8.540;2023-05-24T00:42:02;100807.88;;;6.00;74.30
2188;BME280;1100;52.014;8.540;2023-05-24T00:44:28;100807.06;;;5.99;74.06
2188;BME280;1100;52.014;8.540;2023-05-24T00:46:53;100815.34;;;5.99;74.61
2188;BME280;1100;52.014;8.540;2023-05-24T00:49:19;100806.31;;;5.99;74.35
2188;BME280;1100;52.014;8.540;2023-05-24T00:51:45;100812.97;;;5.98;74.62
2188;BME280;1100;52.014;8.540;2023-05-24T00:54:11;100820.47;;;6.01;74.81
2188;BME280;1100;52.014;8.540;2023-05-24T00:56:39;100812.22;;;6.01;74.43
2188;BME280;1100;52.014;8.540;2023-05-24T00:59:05;100814.59;;;5.99;74.62
2188;BME280;1100;52.014;8.540;2023-05-24T01:01:30;100812.59;;;5.99;74.67
2188;BME280;1100;52.014;8.540;2023-05-24T01:03:59;100802.34;;;5.96;74.86
2188;BME280;1100;52.014;8.540;2023-05-24T01:06:25;100799.59;;;6.00;75.12
2188;BME280;1100;52.014;8.540;2023-05-24T01:14:44;100790.91;;;6.02;74.92
2188;BME280;1100;52.014;8.540;2023-05-24T01:17:17;100789.34;;;6.01;74.91
2188;BME280;1100;52.014;8.540;2023-05-24T01:22:23;100780.66;;;5.95;75.20
2188;BME280;1100;52.014;8.540;2023-05-24T01:27:22;100784.19;;;5.92;75.27
2188;BME280;1100;52.014;8.540;2023-05-24T01:29:49;100783.41;;;5.91;75.09
2188;BME280;1100;52.014;8.540;2023-05-24T01:32:18;100786.94;;;5.92;74.98
2188;BME280;1100;52.014;8.540;2023-05-24T01:34:43;100793.66;;;5.91;74.83
2188;BME280;1100;52.014;8.540;2023-05-24T01:37:09;100790.88;;;5.87;75.39
2188;BME280;1100;52.014;8.540;2023-05-24T01:39:34;100797.97;;;5.84;75.18
2188;BME280;1100;52.014;8.540;2023-05-24T01:42:24;100786.13;;;5.84;75.04
2188;BME280;1100;52.014;8.540;2023-05-24T01:49:53;100794.00;;;5.78;75.00
2188;BME280;1100;52.014;8.540;2023-05-24T01:52:22;100783.75;;;5.75;74.96
2188;BME280;1100;52.014;8.540;2023-05-24T01:54:51;100783.72;;;5.71;75.02
2188;BME280;1100;52.014;8.540;2023-05-24T01:57:18;100780.59;;;5.69;74.93
2188;BME280;1100;52.014;8.540;2023-05-24T01:59:46;100778.59;;;5.70;75.31
2188;BME280;1100;52.014;8.540;2023-05-24T02:02:12;100779.78;;;5.69;75.43
2188;BME280;1100;52.014;8.540;2023-05-24T02:04:37;100775.44;;;5.71;75.45
2188;BME280;1100;52.014;8.540;2023-05-24T02:07:03;100776.63;;;5.70;75.56
2188;BME280;1100;52.014;8.540;2023-05-24T02:09:28;100775.84;;;5.70;75.44
2188;BME280;1100;52.014;8.540;2023-05-24T02:11:54;100775.84;;;5.70;75.38
2188;BME280;1100;52.014;8.540;2023-05-24T02:14:19;100771.09;;;5.67;75.59
2188;BME280;1100;52.014;8.540;2023-05-24T02:16:46;100774.28;;;5.69;75.80
2188;BME280;1100;52.014;8.540;2023-05-24T02:19:12;100777.03;;;5.69;76.05
2188;BME280;1100;52.014;8.540;2023-05-24T02:21:37;100769.53;;;5.66;75.91
2188;BME280;1100;52.014;8.540;2023-05-24T02:24:03;100772.28;;;5.66;75.96
2188;BME280;1100;52.014;8.540;2023-05-24T02:26:29;100773.47;;;5.65;75.68
2188;BME280;1100;52.014;8.540;2023-05-24T02:28:54;100778.97;;;5.61;75.66
2188;BME280;1100;52.014;8.540;2023-05-24T02:31:21;100768.72;;;5.58;75.60
2188;BME280;1100;52.014;8.540;2023-05-24T02:33:46;100773.03;;;5.55;76.00
2188;BME280;1100;52.014;8.540;2023-05-24T02:36:11;100776.97;;;5.54;75.77
2188;BME280;1100;52.014;8.540;2023-05-24T02:38:37;100770.25;;;5.48;75.73
2188;BME280;1100;52.014;8.540;2023-05-24T02:41:03;100773.78;;;5.45;76.13
2188;BME280;1100;52.014;8.540;2023-05-24T02:43:28;100776.16;;;5.43;75.95
2188;BME280;1100;52.014;8.540;2023-05-24T02:45:54;100773.34;;;5.39;76.13
2188;BME280;1100;52.014;8.540;2023-05-24T02:48:19;100768.22;;;5.38;76.34
2188;BME280;1100;52.014;8.540;2023-05-24T02:50:45;100775.69;;;5.37;76.01
2188;BME280;1100;52.014;8.540;2023-05-24T02:53:10;100774.50;;;5.34;76.20
2188;BME280;1100;52.014;8.540;2023-05-24T02:55:35;100772.94;;;5.33;76.08
2188;BME280;1100;52.014;8.540;2023-05-24T02:58:01;100772.94;;;5.33;76.34
2188;BME280;1100;52.014;8.540;2023-05-24T03:00:27;100763.50;;;5.34;76.50
2188;BME280;1100;52.014;8.540;2023-05-24T03:02:52;100764.69;;;5.33;76.17
2188;BME280;1100;52.014;8.540;2023-05-24T03:05:17;100774.47;;;5.27;76.43
2188;BME280;1100;52.014;8.540;2023-05-24T03:07:43;100782.34;;;5.25;76.13
2188;BME280;1100;52.014;8.540;2023-05-24T03:10:08;100774.84;;;5.22;76.29
2188;BME280;1100;52.014;8.540;2023-05-24T03:12:34;100774.44;;;5.20;76.48
2188;BME280;1100;52.014;8.540;2023-05-24T03:14:59;100785.88;;;5.22;76.51
2188;BME280;1100;52.014;8.540;2023-05-24T03:17:24;100782.31;;;5.21;76.50
2188;BME280;1100;52.014;8.540;2023-05-24T03:19:50;100787.41;;;5.19;76.56
2188;BME280;1100;52.014;8.540;2023-05-24T03:22:17;100788.19;;;5.16;76.24
2188;BME280;1100;52.014;8.540;2023-05-24T03:24:42;100782.28;;;5.14;76.55
2188;BME280;1100;52.014;8.540;2023-05-24T03:27:07;100781.09;;;5.15;76.86
2188;BME280;1100;52.014;8.540;2023-05-24T03:29:33;100783.09;;;5.18;76.61
2188;BME280;1100;52.014;8.540;2023-05-24T03:31:58;100777.97;;;5.24;77.00
2188;BME280;1100;52.014;8.540;2023-05-24T03:34:23;100785.13;;;5.32;76.76
2188;BME280;1100;52.014;8.540;2023-05-24T03:36:49;100782.78;;;5.34;76.83
2188;BME280;1100;52.014;8.540;2023-05-24T03:39:14;100787.53;;;5.38;76.87
2188;BME280;1100;52.014;8.540;2023-05-24T03:41:39;100788.31;;;5.42;77.04
2188;BME280;1100;52.014;8.540;2023-05-24T03:44:05;100792.69;;;5.43;77.04
2188;BME280;1100;52.014;8.540;2023-05-24T03:46:30;100793.06;;;5.45;76.80
2188;BME280;1100;52.014;8.540;2023-05-24T03:48:55;100798.63;;;5.48;76.89
2188;BME280;1100;52.014;8.540;2023-05-24T03:51:21;100789.19;;;5.53;76.90
2188;BME280;1100;52.014;8.540;2023-05-24T03:53:54;100786.44;;;5.57;77.27
2188;BME280;1100;52.014;8.540;2023-05-24T03:56:20;100781.69;;;5.57;77.11
2188;BME280;1100;52.014;8.540;2023-05-24T03:58:46;100786.44;;;5.60;76.99
2188;BME280;1100;52.014;8.540;2023-05-24T04:01:11;100777.41;;;5.60;76.96
2188;BME280;1100;52.014;8.540;2023-05-24T04:03:37;100778.97;;;5.61;77.48
2188;BME280;1100;52.014;8.540;2023-05-24T04:06:03;100781.69;;;5.57;76.87
2188;BME280;1100;52.014;8.540;2023-05-24T04:08:28;100779.75;;;5.58;77.31
2188;BME280;1100;52.014;8.540;2023-05-24T04:10:53;100773.44;;;5.54;77.40
2188;BME280;1100;52.014;8.540;2023-05-24T04:13:19;100775.41;;;5.57;77.25
2188;BME280;1100;52.014;8.540;2023-05-24T04:15:44;100773.44;;;5.57;77.49
2188;BME280;1100;52.014;8.540;2023-05-24T04:18:10;100771.09;;;5.59;77.71
2188;BME280;1100;52.014;8.540;2023-05-24T04:20:36;100777.41;;;5.64;77.74
2188;BME280;1100;52.014;8.540;2023-05-24T04:23:02;100782.91;;;5.64;77.78
2188;BME280;1100;52.014;8.540;2023-05-24T04:25:27;100772.28;;;5.66;77.82
2188;BME280;1100;52.014;8.540;2023-05-24T04:27:53;100778.63;;;5.73;77.57
2188;BME280;1100;52.014;8.540;2023-05-24T04:30:20;100781.41;;;5.77;77.69
2188;BME280;1100;52.014;8.540;2023-05-24T04:32:46;100779.81;;;5.80;77.73
2188;BME280;1100;52.014;8.540;2023-05-24T04:35:11;100783.78;;;5.86;77.48
2188;BME280;1100;52.014;8.540;2023-05-24T04:37:37;100772.78;;;5.90;77.42
2188;BME280;1100;52.014;8.540;2023-05-24T04:40:04;100777.88;;;5.88;77.66
2188;BME280;1100;52.014;8.540;2023-05-24T04:42:30;100778.66;;;5.84;77.56
2188;BME280;1100;52.014;8.540;2023-05-24T04:44:58;100767.22;;;5.82;77.53
2188;BME280;1100;52.014;8.540;2023-05-24T04:47:24;100769.59;;;5.84;77.33
2188;BME280;1100;52.014;8.540;2023-05-24T04:49:49;100779.47;;;5.85;77.33
2188;BME280;1100;52.014;8.540;2023-05-24T04:52:16;100775.13;;;5.88;77.67
2188;BME280;1100;52.014;8.540;2023-05-24T04:54:42;100781.03;;;5.93;77.60
2188;BME280;1100;52.014;8.540;2023-05-24T04:57:07;100785.00;;;6.03;77.56
2188;BME280;1100;52.014;8.540;2023-05-24T04:59:32;100780.31;;;6.11;77.53
2188;BME280;1100;52.014;8.540;2023-05-24T05:01:58;100787.03;;;6.17;77.42
2188;BME280;1100;52.014;8.540;2023-05-24T05:04:23;100777.19;;;6.20;77.44
2188;BME280;1100;52.014;8.540;2023-05-24T05:06:48;100782.34;;;6.29;77.80
2188;BME280;1100;52.014;8.540;2023-05-24T05:09:14;100792.19;;;6.37;77.69
2188;BME280;1100;52.014;8.540;2023-05-24T05:11:40;100786.28;;;6.42;78.01
2188;BME280;1100;52.014;8.540;2023-05-24T05:14:06;100789.84;;;6.46;77.83
2188;BME280;1100;52.014;8.540;2023-05-24T05:16:34;100786.28;;;6.53;77.77
2188;BME280;1100;52.014;8.540;2023-05-24T05:19:00;100784.31;;;6.57;77.87
2188;BME280;1100;52.014;8.540;2023-05-24T05:21:25;100791.41;;;6.62;77.88
2188;BME280;1100;52.014;8.540;2023-05-24T05:23:51;100785.91;;;6.69;78.12
2188;BME280;1100;52.014;8.540;2023-05-24T05:26:16;100796.56;;;6.75;78.26
2188;BME280;1100;52.014;8.540;2023-05-24T05:28:41;100799.72;;;6.73;77.83
2188;BME280;1100;52.014;8.540;2023-05-24T05:31:09;100797.75;;;6.70;77.67
2188;BME280;1100;52.014;8.540;2023-05-24T05:33:35;100796.53;;;6.64;77.85
2188;BME280;1100;52.014;8.540;2023-05-24T05:36:00;100802.06;;;6.56;78.03
2188;BME280;1100;52.014;8.540;2023-05-24T05:38:25;100805.63;;;6.53;78.24
2188;BME280;1100;52.014;8.540;2023-05-24T05:40:51;100801.28;;;6.52;78.00
2188;BME280;1100;52.014;8.540;2023-05-24T05:43:16;100806.41;;;6.50;78.33
2188;BME280;1100;52.014;8.540;2023-05-24T05:45:41;100802.88;;;6.46;78.14
2188;BME280;1100;52.014;8.540;2023-05-24T05:48:07;100808.38;;;6.42;78.01
2188;BME280;1100;52.014;8.540;2023-05-24T05:50:35;100812.72;;;6.43;78.18
2188;BME280;1100;52.014;8.540;2023-05-24T05:53:00;100808.78;;;6.48;78.25
2188;BME280;1100;52.014;8.540;2023-05-24T05:55:26;100808.81;;;6.55;78.44
2188;BME280;1100;52.014;8.540;2023-05-24T05:57:51;100811.53;;;6.59;78.31
2188;BME280;1100;52.014;8.540;2023-05-24T06:00:17;100820.25;;;6.65;78.52
2188;BME280;1100;52.014;8.540;2023-05-24T06:02:42;100816.31;;;6.73;78.59
2188;BME280;1100;52.014;8.540;2023-05-24T06:05:08;100818.66;;;6.82;78.60
2188;BME280;1100;52.014;8.540;2023-05-24T06:07:33;100818.28;;;6.94;78.82
2188;BME280;1100;52.014;8.540;2023-05-24T06:09:59;100814.69;;;7.08;78.87
2188;BME280;1100;52.014;8.540;2023-05-24T06:12:25;100811.91;;;7.23;78.53
2188;BME280;1100;52.014;8.540;2023-05-24T06:14:50;100814.25;;;7.28;78.23
2188;BME280;1100;52.014;8.540;2023-05-24T06:17:16;100813.84;;;7.30;78.75
2188;BME280;1100;52.014;8.540;2023-05-24T06:19:42;100817.03;;;7.35;79.08
2188;BME280;1100;52.014;8.540;2023-05-24T06:22:08;100815.44;;;7.38;78.71
2188;BME280;1100;52.014;8.540;2023-05-24T06:24:33;100824.09;;;7.44;78.54
2188;BME280;1100;52.014;8.540;2023-05-24T06:26:58;100826.47;;;7.53;78.89
2188;BME280;1100;52.014;8.540;2023-05-24T06:29:24;100821.69;;;7.60;78.57
2188;BME280;1100;52.014;8.540;2023-05-24T06:31:49;100813.34;;;7.64;78.81
2188;BME280;1100;52.014;8.540;2023-05-24T06:34:15;100816.53;;;7.70;78.58
2188;BME280;1100;52.014;8.540;2023-05-24T06:36:45;100807.78;;;7.75;78.63
2188;BME280;1100;52.014;8.540;2023-05-24T06:39:12;100806.22;;;7.78;78.31
2188;BME280;1100;52.014;8.540;2023-05-24T06:41:38;100815.69;;;7.80;78.44
2188;BME280;1100;52.014;8.540;2023-05-24T06:44:04;100826.34;;;7.78;78.50
2188;BME280;1100;52.014;8.540;2023-05-24T06:46:29;100831.09;;;7.81;78.55
2188;BME280;1100;52.014;8.540;2023-05-24T06:48:55;100830.25;;;7.92;78.73
2188;BME280;1100;52.014;8.540;2023-05-24T06:51:20;100838.13;;;8.04;78.72
2188;BME280;1100;52.014;8.540;2023-05-24T06:53:46;100830.16;;;8.17;78.59
2188;BME280;1100;52.014;8.540;2023-05-24T06:56:11;100825.72;;;8.27;78.54
2188;BME280;1100;52.014;8.540;2023-05-24T06:58:37;100826.88;;;8.33;78.17
2188;BME280;1100;52.014;8.540;2023-05-24T07:01:02;100826.78;;;8.44;78.05
2188;BME280;1100;52.014;8.540;2023-05-24T07:03:29;100837.00;;;8.58;78.24
2188;BME280;1100;52.014;8.540;2023-05-24T07:05:54;100836.03;;;8.83;78.25
2188;BME280;1100;52.014;8.540;2023-05-24T07:08:20;100836.31;;;9.00;78.26
2188;BME280;1100;52.014;8.540;2023-05-24T07:10:45;100840.16;;;9.10;77.72
2188;BME280;1100;52.014;8.540;2023-05-24T07:13:11;100838.59;;;9.09;77.53
2188;BME280;1100;52.014;8.540;2023-05-24T07:15:40;100842.97;;;9.06;77.67
2188;BME280;1100;52.014;8.540;2023-05-24T07:18:05;100844.84;;;9.20;77.55
2188;BME280;1100;52.014;8.540;2023-05-24T07:20:31;100850.19;;;9.39;77.59
2188;BME280;1100;52.014;8.540;2023-05-24T07:22:57;100854.25;;;9.69;77.88
2188;BME280;1100;52.014;8.540;2023-05-24T07:25:22;100852.16;;;9.77;77.41
2188;BME280;1100;52.014;8.540;2023-05-24T07:27:48;100855.63;;;9.84;77.42
2188;BME280;1100;52.014;8.540;2023-05-24T07:30:14;100853.94;;;9.94;77.52
2188;BME280;1100;52.014;8.540;2023-05-24T07:32:39;100855.06;;;10.01;77.52
2188;BME280;1100;52.014;8.540;2023-05-24T07:35:05;100845.78;;;10.11;77.44
2188;BME280;1100;52.014;8.540;2023-05-24T07:37:31;100850.09;;;10.16;77.26
2188;BME280;1100;52.014;8.540;2023-05-24T07:39:56;100855.03;;;10.32;76.90
2188;BME280;1100;52.014;8.540;2023-05-24T07:42:21;100846.63;;;10.35;76.47
2188;BME280;1100;52.014;8.540;2023-05-24T07:44:46;100839.03;;;10.40;76.44
2188;BME280;1100;52.014;8.540;2023-05-24T07:47:12;100838.66;;;10.38;76.54
2188;BME280;1100;52.014;8.540;2023-05-24T07:49:37;100840.59;;;10.41;76.40
2188;BME280;1100;52.014;8.540;2023-05-24T07:52:03;100845.44;;;10.37;76.42
2188;BME280;1100;52.014;8.540;2023-05-24T07:54:28;100850.31;;;10.29;75.85
2188;BME280;1100;52.014;8.540;2023-05-24T07:56:53;100848.00;;;10.24;76.06
2188;BME280;1100;52.014;8.540;2023-05-24T07:59:19;100843.31;;;10.17;75.99
2188;BME280;1100;52.014;8.540;2023-05-24T08:01:44;100841.38;;;10.14;76.28
2188;BME280;1100;52.014;8.540;2023-05-24T08:04:11;100843.22;;;10.24;75.78
2188;BME280;1100;52.014;8.540;2023-05-24T08:06:37;100843.69;;;10.50;75.57
2188;BME280;1100;52.014;8.540;2023-05-24T08:09:03;100844.31;;;10.62;75.28
2188;BME280;1100;52.014;8.540;2023-05-24T08:11:29;100847.47;;;10.88;75.29
2188;BME280;1100;52.014;8.540;2023-05-24T08:13:55;100860.53;;;11.15;75.02
2188;BME280;1100;52.014;8.540;2023-05-24T08:16:20;100850.66;;;11.54;75.14
2188;BME280;1100;52.014;8.540;2023-05-24T08:18:45;100848.31;;;11.93;74.63
2188;BME280;1100;52.014;8.540;2023-05-24T08:21:11;100850.22;;;11.96;74.49
2188;BME280;1100;52.014;8.540;2023-05-24T08:23:36;100852.94;;;12.00;74.03
2188;BME280;1100;52.014;8.540;2023-05-24T08:26:02;100845.75;;;11.82;73.62
2188;BME280;1100;52.014;8.540;2023-05-24T08:28:27;100841.88;;;11.76;73.46
2188;BME280;1100;52.014;8.540;2023-05-24T08:30:53;100853.03;;;11.76;73.51
2188;BME280;1100;52.014;8.540;2023-05-24T08:33:19;100849.19;;;11.70;73.50
2188;BME280;1100;52.014;8.540;2023-05-24T08:35:44;100851.31;;;11.42;72.70
2188;BME280;1100;52.014;8.540;2023-05-24T08:38:09;100848.25;;;11.12;72.72
2188;BME280;1100;52.014;8.540;2023-05-24T08:40:35;100851.41;;;10.90;73.04
2188;BME280;1100;52.014;8.540;2023-05-24T08:43:00;100848.91;;;10.72;72.83
2188;BME280;1100;52.014;8.540;2023-05-24T08:45:28;100865.19;;;10.46;72.93
2188;BME280;1100;52.014;8.540;2023-05-24T08:47:56;100851.66;;;10.17;72.96
2188;BME280;1100;52.014;8.540;2023-05-24T08:50:21;100857.03;;;10.00;73.13
2188;BME280;1100;52.014;8.540;2023-05-24T08:52:47;100853.25;;;9.87;73.11
2188;BME280;1100;52.014;8.540;2023-05-24T08:55:13;100854.53;;;9.78;73.36
2188;BME280;1100;52.014;8.540;2023-05-24T08:57:39;100849.38;;;9.77;73.43
2188;BME280;1100;52.014;8.540;2023-05-24T09:00:09;100854.06;;;9.83;73.66
2188;BME280;1100;52.014;8.540;2023-05-24T09:02:38;100859.56;;;9.87;73.52
2188;BME280;1100;52.014;8.540;2023-05-24T09:05:08;100858.69;;;9.94;73.73
2188;BME280;1100;52.014;8.540;2023-05-24T09:07:34;100862.59;;;10.00;73.69
2188;BME280;1100;52.014;8.540;2023-05-24T09:10:03;100856.31;;;9.96;73.73
2188;BME280;1100;52.014;8.540;2023-05-24T09:12:30;100861.16;;;9.88;73.40
2188;BME280;1100;52.014;8.540;2023-05-24T09:15:00;100867.53;;;9.85;73.54
2188;BME280;1100;52.014;8.540;2023-05-24T09:17:26;100867.59;;;9.78;73.57
2188;BME280;1100;52.014;8.540;2023-05-24T09:19:51;100869.28;;;9.71;73.73
2188;BME280;1100;52.014;8.540;2023-05-24T09:22:17;100875.28;;;9.66;73.77
2188;BME280;1100;52.014;8.540;2023-05-24T09:24:48;100869.34;;;9.64;73.75
2188;BME280;1100;52.014;8.540;2023-05-24T09:27:20;100873.69;;;9.65;73.99
2188;BME280;1100;52.014;8.540;2023-05-24T09:29:46;100877.66;;;9.68;74.00
2188;BME280;1100;52.014;8.540;2023-05-24T09:32:14;100884.34;;;9.74;74.34
2188;BME280;1100;52.014;8.540;2023-05-24T09:34:44;100882.69;;;9.77;74.02
2188;BME280;1100;52.014;8.540;2023-05-24T09:37:13;100885.06;;;9.78;73.99
2188;BME280;1100;52.014;8.540;2023-05-24T09:39:41;100882.31;;;9.75;73.91
2188;BME280;1100;52.014;8.540;2023-05-24T09:42:07;100884.78;;;9.69;73.75
2188;BME280;1100;52.014;8.540;2023-05-24T09:44:38;100892.38;;;9.65;74.21
2188;BME280;1100;52.014;8.540;2023-05-24T09:47:03;100886.44;;;9.63;74.35
2188;BME280;1100;52.014;8.540;2023-05-24T09:49:30;100886.44;;;9.63;74.46
2188;BME280;1100;52.014;8.540;2023-05-24T09:51:55;100889.63;;;9.61;74.51
2188;BME280;1100;52.014;8.540;2023-05-24T09:54:21;100886.44;;;9.63;74.51
2188;BME280;1100;52.014;8.540;2023-05-24T09:56:46;100883.66;;;9.63;74.60
2188;BME280;1100;52.014;8.540;2023-05-24T09:59:12;100880.88;;;9.63;74.61
2188;BME280;1100;52.014;8.540;2023-05-24T10:01:38;100886.84;;;9.61;74.61
2188;BME280;1100;52.014;8.540;2023-05-24T10:04:03;100883.66;;;9.63;74.71
2188;BME280;1100;52.014;8.540;2023-05-24T10:06:32;100880.47;;;9.64;74.81
2188;BME280;1100;52.014;8.540;2023-05-24T10:09:02;100881.19;;;9.68;74.74
2188;BME280;1100;52.014;8.540;2023-05-24T10:11:31;100880.72;;;9.77;74.95
2188;BME280;1100;52.014;8.540;2023-05-24T10:13:57;100881.38;;;9.89;74.84
2188;BME280;1100;52.014;8.540;2023-05-24T10:16:23;100887.13;;;10.05;75.11
2188;BME280;1100;52.014;8.540;2023-05-24T10:18:49;100882.00;;;10.35;75.39
2188;BME280;1100;52.014;8.540;2023-05-24T10:21:16;100895.13;;;10.62;75.14
2188;BME280;1100;52.014;8.540;2023-05-24T10:23:44;100885.88;;;10.69;74.65
2188;BME280;1100;52.014;8.540;2023-05-24T10:26:15;100890.41;;;10.59;74.58
2188;BME280;1100;52.014;8.540;2023-05-24T10:28:44;100891.31;;;10.52;74.82
2188;BME280;1100;52.014;8.540;2023-05-24T10:31:17;100892.75;;;10.61;75.15
2188;BME280;1100;52.014;8.540;2023-05-24T10:33:46;100897.19;;;10.58;74.65
2188;BME280;1100;52.014;8.540;2023-05-24T10:36:13;100897.72;;;10.49;74.46
2188;BME280;1100;52.014;8.540;2023-05-24T10:38:40;100893.84;;;10.39;74.65
2188;BME280;1100;52.014;8.540;2023-05-24T10:41:10;100898.56;;;10.42;75.00
2188;BME280;1100;52.014;8.540;2023-05-24T10:43:37;100900.09;;;10.47;75.00
2188;BME280;1100;52.014;8.540;2023-05-24T10:46:04;100901.38;;;10.39;74.80
2188;BME280;1100;52.014;8.540;2023-05-24T10:48:32;100909.81;;;10.31;74.79
2188;BME280;1100;52.014;8.540;2023-05-24T10:51:00;100895.66;;;10.22;74.63
2188;BME280;1100;52.014;8.540;2023-05-24T10:53:45;100900.53;;;10.10;74.98
2188;BME280;1100;52.014;8.540;2023-05-24T10:56:11;100896.72;;;10.01;75.20
2188;BME280;1100;52.014;8.540;2023-05-24T11:01:32;100904.47;;;9.82;75.56
2188;BME280;1100;52.014;8.540;2023-05-24T11:04:17;100896.09;;;9.85;75.67
2188;BME280;1100;52.014;8.540;2023-05-24T11:06:53;100895.63;;;9.91;75.56
2188;BME280;1100;52.014;8.540;2023-05-24T11:09:20;100900.38;;;9.90;75.50
2188;BME280;1100;52.014;8.540;2023-05-24T11:11:46;100895.25;;;9.89;75.63
2188;BME280;1100;52.014;8.540;2023-05-24T11:14:16;100893.72;;;9.84;75.59
2188;BME280;1100;52.014;8.540;2023-05-24T11:16:44;100898.91;;;9.82;75.58
2188;BME280;1100;52.014;8.540;2023-05-24T11:21:38;100893.69;;;9.88;75.99
2188;BME280;1100;52.014;8.540;2023-05-24T11:24:04;100894.28;;;10.03;75.90
2188;BME280;1100;52.014;8.540;2023-05-24T11:26:30;100898.94;;;10.13;75.91
2188;BME280;1100;52.014;8.540;2023-05-24T11:28:56;100893.16;;;10.31;75.92
2188;BME280;1100;52.014;8.540;2023-05-24T11:31:27;100895.34;;;10.48;75.51
2188;BME280;1100;52.014;8.540;2023-05-24T11:33:52;100896.72;;;10.63;75.67
2188;BME280;1100;52.014;8.540;2023-05-24T11:36:26;100888.50;;;10.80;75.83
2188;BME280;1100;52.014;8.540;2023-05-24T11:38:54;100883.16;;;11.17;75.64
2188;BME280;1100;52.014;8.540;2023-05-24T11:41:20;100878.94;;;11.53;75.42
2188;BME280;1100;52.014;8.540;2023-05-24T11:43:46;100879.00;;;11.90;75.50
2188;BME280;1100;52.014;8.540;2023-05-24T11:46:12;100877.88;;;12.28;75.51
2188;BME280;1100;52.014;8.540;2023-05-24T11:48:37;100872.03;;;12.39;75.31
2188;BME280;1100;52.014;8.540;2023-05-24T11:51:03;100878.56;;;12.32;74.80
2188;BME280;1100;52.014;8.540;2023-05-24T11:53:30;100875.25;;;12.20;74.79
2188;BME280;1100;52.014;8.540;2023-05-24T11:55:55;100878.72;;;12.04;74.89
2188;BME280;1100;52.014;8.540;2023-05-24T11:58:22;100882.22;;;11.88;74.50
2188;BME280;1100;52.014;8.540;2023-05-24T12:00:49;100886.16;;;11.70;74.72
2188;BME280;1100;52.014;8.540;2023-05-24T12:03:15;100874.44;;;11.59;74.50
2188;BME280;1100;52.014;8.540;2023-05-24T12:05:41;100882.16;;;11.51;74.79
2188;BME280;1100;52.014;8.540;2023-05-24T12:08:08;100883.72;;;11.52;75.02
2188;BME280;1100;52.014;8.540;2023-05-24T12:10:35;100882.50;;;11.53;74.78
2188;BME280;1100;52.014;8.540;2023-05-24T12:13:04;100880.44;;;11.57;75.02
2188;BME280;1100;52.014;8.540;2023-05-24T12:15:31;100881.09;;;11.65;74.99
2188;BME280;1100;52.014;8.540;2023-05-24T12:17:57;100879.81;;;11.70;74.73
2188;BME280;1100;52.014;8.540;2023-05-24T12:20:23;100876.00;;;11.60;74.36
2188;BME280;1100;52.014;8.540;2023-05-24T12:22:53;100877.00;;;11.50;74.13
2188;BME280;1100;52.014;8.540;2023-05-24T12:25:21;100886.50;;;11.52;74.35
2188;BME280;1100;52.014;8.540;2023-05-24T12:27:51;100881.16;;;11.62;74.43
2188;BME280;1100;52.014;8.540;2023-05-24T12:30:21;100885.88;;;11.65;74.36
2188;BME280;1100;52.014;8.540;2023-05-24T12:32:47;100884.59;;;11.69;74.48
2188;BME280;1100;52.014;8.540;2023-05-24T12:35:13;100882.50;;;11.74;74.43
2188;BME280;1100;52.014;8.540;2023-05-24T12:37:38;100882.22;;;11.68;74.19
2188;BME280;1100;52.014;8.540;2023-05-24T12:40:24;100883.34;;;11.50;74.01
2188;BME280;1100;52.014;8.540;2023-05-24T12:42:52;100887.25;;;11.32;74.00
2188;BME280;1100;52.014;8.540;2023-05-24T12:45:18;100887.03;;;11.23;74.27
2188;BME280;1100;52.014;8.540;2023-05-24T12:47:53;100884.00;;;11.14;74.24
2188;BME280;1100;52.014;8.540;2023-05-24T12:50:19;100889.66;;;11.06;74.33
2188;BME280;1100;52.014;8.540;2023-05-24T12:52:45;100892.81;;;11.08;74.58
2188;BME280;1100;52.014;8.540;2023-05-24T12:55:14;100892.81;;;11.08;74.97
2188;BME280;1100;52.014;8.540;2023-05-24T12:57:41;100893.25;;;11.07;74.59
2188;BME280;1100;52.014;8.540;2023-05-24T13:00:10;100890.03;;;11.08;74.54
2188;BME280;1100;52.014;8.540;2023-05-24T13:02:39;100885.69;;;11.07;74.63
2188;BME280;1100;52.014;8.540;2023-05-24T13:05:06;100887.63;;;11.11;74.69
2188;BME280;1100;52.014;8.540;2023-05-24T13:07:32;100886.47;;;11.08;74.60
2188;BME280;1100;52.014;8.540;2023-05-24T13:09:57;100893.19;;;11.11;74.61
2188;BME280;1100;52.014;8.540;2023-05-24T13:12:24;100894.38;;;11.09;74.46
2188;BME280;1100;52.014;8.540;2023-05-24T13:14:50;100886.13;;;11.06;74.46
2188;BME280;1100;52.014;8.540;2023-05-24T13:17:16;100889.66;;;11.06;74.63
2188;BME280;1100;52.014;8.540;2023-05-24T13:19:42;100886.41;;;11.12;74.61
2188;BME280;1100;52.014;8.540;2023-05-24T13:22:07;100887.06;;;11.19;74.59
2188;BME280;1100;52.014;8.540;2023-05-24T13:24:33;100882.03;;;11.34;74.83
2188;BME280;1100;52.014;8.540;2023-05-24T13:26:58;100892.06;;;11.52;74.67
2188;BME280;1100;52.014;8.540;2023-05-24T13:29:24;100887.09;;;11.64;74.45
2188;BME280;1100;52.014;8.540;2023-05-24T13:31:49;100889.03;;;11.67;74.50
2188;BME280;1100;52.014;8.540;2023-05-24T13:34:15;100883.03;;;11.68;74.38